Time;durP1;ratioP1;P1;durP2;ratioP2;P2;SDS_P1;SDS_P2;PMS_P1;PMS_P2;Temp;Humidity;BMP_temperature;BMP_pressure;BME280_temperature;BME280_humidity;BME280_pressure;Samples;Min_cycle;Max_cycle;Signal;HPM_P1;HPM_P2
2022/05/02 00:01:51;;;;;;;;;11.00;10.00;;;;;16.19;61.81;100999.81;146609;602;46010;-76
2022/05/02 00:04:43;;;;;;;;;10.25;8.75;;;;;16.21;62.57;100995.53;146604;581;46016;-70
2022/05/02 00:07:35;;;;;;;;;11.50;10.75;;;;;16.23;61.99;100989.50;146611;604;46020;-69
2022/05/02 00:10:28;;;;;;;;;10.00;10.00;;;;;16.25;61.64;100994.78;146605;587;46017;-69
2022/05/02 00:13:20;;;;;;;;;10.50;8.75;;;;;16.28;61.43;100994.88;146617;576;46010;-74
2022/05/02 00:16:12;;;;;;;;;9.00;7.00;;;;;16.29;61.00;100986.16;146610;647;46029;-70
2022/05/02 00:19:04;;;;;;;;;8.75;7.50;;;;;16.30;60.02;100974.88;146614;576;46020;-69
2022/05/02 00:21:55;;;;;;;;;8.50;7.00;;;;;16.34;60.80;100974.12;146611;613;47012;-70
2022/05/02 00:24:48;;;;;;;;;10.75;10.25;;;;;16.29;62.34;100973.09;146617;592;46010;-69
2022/05/02 00:27:42;;;;;;;;;11.50;10.75;;;;;16.24;61.55;100966.84;146610;574;46012;-69
2022/05/02 00:30:35;;;;;;;;;10.25;10.00;;;;;16.23;61.89;100973.81;146609;583;46020;-70
2022/05/02 00:33:26;;;;;;;;;12.75;10.50;;;;;16.28;61.48;100973.94;146610;630;46012;-71
2022/05/02 00:36:19;;;;;;;;;12.75;9.75;;;;;16.32;61.39;100965.34;146610;716;46010;-71
2022/05/02 00:39:11;;;;;;;;;10.25;9.00;;;;;16.38;61.00;100960.28;146609;700;46013;-72
2022/05/02 00:42:03;;;;;;;;;9.25;9.25;;;;;16.39;61.31;100965.59;146611;566;46020;-72
2022/05/02 00:44:55;;;;;;;;;10.75;8.00;;;;;16.37;61.19;100974.22;146611;610;46015;-72
2022/05/02 00:47:58;;;;;;;;;10.50;10.25;;;;;16.31;60.57;100958.34;146612;618;46010;-74
2022/05/02 00:50:50;;;;;;;;;9.75;9.75;;;;;16.28;60.89;100966.09;146612;723;46016;-72
2022/05/02 00:53:43;;;;;;;;;9.00;9.00;;;;;16.26;61.02;100959.91;146613;682;46021;-72
2022/05/02 00:56:36;;;;;;;;;11.00;9.25;;;;;16.25;61.30;100951.19;146612;612;45016;-70
2022/05/02 00:59:28;;;;;;;;;9.00;7.00;;;;;16.27;61.00;100959.09;146614;607;46010;-67
2022/05/02 01:02:20;;;;;;;;;7.75;6.00;;;;;16.28;61.57;100955.63;146614;563;46013;-68
2022/05/02 01:05:12;;;;;;;;;9.25;6.75;;;;;16.28;62.10;100955.63;146609;563;46020;-69
2022/05/02 01:08:05;;;;;;;;;10.75;8.50;;;;;16.27;61.70;100948.63;146606;684;46016;-70
2022/05/02 01:10:59;;;;;;;;;9.50;8.00;;;;;16.24;62.41;100952.03;146611;572;46020;-69
2022/05/02 01:13:53;;;;;;;;;12.50;9.50;;;;;16.20;62.63;100954.47;146609;616;46012;-80
2022/05/02 01:16:46;;;;;;;;;10.25;9.75;;;;;16.13;62.67;100946.44;146612;734;46021;-70
2022/05/02 01:19:38;;;;;;;;;9.75;9.50;;;;;16.05;63.10;100932.25;146608;602;47014;-69
2022/05/02 01:22:30;;;;;;;;;7.00;7.00;;;;;15.99;62.90;100937.28;146615;634;46020;-70
2022/05/02 01:25:22;;;;;;;;;9.25;7.25;;;;;15.91;62.64;100936.13;146613;569;46915;-70
2022/05/02 01:28:15;;;;;;;;;8.00;7.00;;;;;15.91;62.98;100928.28;146612;564;46010;-72
2022/05/02 01:31:06;;;;;;;;;7.25;7.25;;;;;15.94;63.07;100924.03;146614;638;46013;-72
2022/05/02 01:34:00;;;;;;;;;8.50;7.00;;;;;15.95;63.12;100919.72;146614;583;46010;-72
2022/05/02 01:36:52;;;;;;;;;9.50;9.50;;;;;15.91;63.39;100912.59;146613;576;46017;-76
2022/05/02 01:39:45;;;;;;;;;9.75;8.25;;;;;15.88;62.81;100912.47;146609;655;46020;-78
2022/05/02 01:42:37;;;;;;;;;8.50;7.25;;;;;15.87;62.88;100908.97;146615;686;46012;-75
2022/05/02 01:45:29;;;;;;;;;8.50;7.75;;;;;15.89;62.70;100909.94;146615;744;46012;-73
2022/05/02 01:48:21;;;;;;;;;8.00;8.00;;;;;15.88;62.54;100908.13;146608;672;46016;-74
2022/05/02 01:51:13;;;;;;;;;9.50;7.00;;;;;15.85;62.78;100905.41;146613;688;46026;-78
2022/05/02 01:54:05;;;;;;;;;6.25;6.25;;;;;15.85;62.52;100888.84;146613;685;46911;-72
2022/05/02 01:56:58;;;;;;;;;11.00;10.00;;;;;15.85;62.86;100886.22;146614;590;46010;-71
2022/05/02 01:59:49;;;;;;;;;9.50;6.75;;;;;15.82;63.79;100883.53;146608;639;46015;-70
2022/05/02 02:02:42;;;;;;;;;8.00;8.00;;;;;15.80;63.11;100875.62;146615;604;46020;-70
2022/05/02 02:05:49;;;;;;;;;6.75;6.50;;;;;15.78;63.52;100866.84;146612;569;47014;-71
2022/05/02 02:08:41;;;;;;;;;8.00;8.00;;;;;15.75;63.62;100869.38;146615;606;46012;-73
2022/05/02 02:11:33;;;;;;;;;8.00;8.00;;;;;15.74;63.33;100867.59;146614;642;47012;-74
2022/05/02 02:14:25;;;;;;;;;9.00;8.00;;;;;15.77;63.04;100861.59;146616;564;46014;-72
2022/05/02 02:17:17;;;;;;;;;10.25;9.00;;;;;15.80;63.06;100866.91;146605;606;46016;-74
2022/05/02 02:20:10;;;;;;;;;9.00;8.50;;;;;15.81;63.09;100863.44;146614;621;46020;-73
2022/05/02 02:23:03;;;;;;;;;9.25;8.50;;;;;15.81;62.89;100850.37;146607;564;46017;-70
2022/05/02 02:25:55;;;;;;;;;8.50;8.00;;;;;15.82;62.69;100850.41;146609;595;46915;-72
2022/05/02 02:28:47;;;;;;;;;8.00;7.25;;;;;15.85;62.84;100836.56;146616;629;46012;-72
2022/05/02 02:31:39;;;;;;;;;10.00;8.75;;;;;15.84;62.34;100846.13;146615;719;46010;-71
2022/05/02 02:34:31;;;;;;;;;10.00;10.00;;;;;15.87;62.67;100854.06;146608;620;46915;-70
2022/05/02 02:37:23;;;;;;;;;9.00;8.00;;;;;15.85;62.64;100847.91;146615;674;46020;-70
2022/05/02 02:40:16;;;;;;;;;8.50;8.50;;;;;15.85;63.18;100852.25;146610;622;46016;-69
2022/05/02 02:43:09;;;;;;;;;8.25;8.25;;;;;15.82;63.25;100844.31;146617;707;46010;-69
2022/05/02 02:46:00;;;;;;;;;8.50;8.50;;;;;15.78;63.60;100845.06;146611;570;46017;-70
2022/05/02 02:48:53;;;;;;;;;9.50;9.00;;;;;15.74;63.91;100849.31;146613;659;46012;-69
2022/05/02 02:51:45;;;;;;;;;10.75;8.75;;;;;15.68;64.21;100841.25;146607;662;46017;-71
2022/05/02 02:54:37;;;;;;;;;11.00;8.75;;;;;15.64;63.60;100842.84;146616;661;46010;-71
2022/05/02 02:57:29;;;;;;;;;8.75;7.75;;;;;15.63;63.62;100837.56;146606;586;47012;-70
2022/05/02 03:00:22;;;;;;;;;10.25;8.00;;;;;15.63;63.34;100837.56;146617;653;46010;-68
2022/05/02 03:03:14;;;;;;;;;10.00;8.50;;;;;15.62;63.76;100839.28;146613;624;46012;-71
2022/05/02 03:06:06;;;;;;;;;10.25;9.25;;;;;15.59;63.64;100836.56;146606;605;47010;-71
2022/05/02 03:08:58;;;;;;;;;8.25;8.25;;;;;15.59;63.63;100835.69;146614;569;46012;-70
2022/05/02 03:11:51;;;;;;;;;10.75;9.50;;;;;15.58;64.15;100844.38;146609;688;46020;-71
2022/05/02 03:14:43;;;;;;;;;10.75;9.75;;;;;15.57;63.59;100839.97;146613;611;46016;-73
2022/05/02 03:17:35;;;;;;;;;10.00;8.00;;;;;15.56;63.61;100836.47;146614;566;45020;-71
2022/05/02 03:20:27;;;;;;;;;9.25;9.25;;;;;15.57;63.14;100834.75;146614;601;46012;-72
2022/05/02 03:23:19;;;;;;;;;11.25;10.00;;;;;15.59;63.55;100825.25;146612;575;46010;-72
2022/05/02 03:26:11;;;;;;;;;8.75;8.25;;;;;15.58;63.73;100834.81;146604;575;46016;-71
2022/05/02 03:29:04;;;;;;;;;8.25;8.25;;;;;15.56;63.46;100832.97;146614;631;46010;-71
2022/05/02 03:31:56;;;;;;;;;9.50;9.00;;;;;15.57;63.71;100833.00;146609;681;47012;-72
2022/05/02 03:34:48;;;;;;;;;10.50;9.50;;;;;15.56;63.19;100828.62;146611;569;46010;-73
2022/05/02 03:37:40;;;;;;;;;11.25;9.50;;;;;15.54;63.68;100829.41;146607;566;46016;-73
2022/05/02 03:40:33;;;;;;;;;9.00;8.75;;;;;15.53;63.07;100835.50;146613;598;46020;-71
2022/05/02 03:43:25;;;;;;;;;10.00;8.75;;;;;15.53;62.98;100838.09;146612;702;46017;-68
2022/05/02 03:46:17;;;;;;;;;10.75;9.75;;;;;15.59;63.44;100840.91;146616;565;46010;-73
2022/05/02 03:49:09;;;;;;;;;12.00;10.00;;;;;15.59;63.12;100841.81;146607;578;46915;-73
2022/05/02 03:52:02;;;;;;;;;10.75;10.00;;;;;15.62;62.79;100847.13;146612;583;46010;-73
2022/05/02 03:54:54;;;;;;;;;9.25;9.25;;;;;15.63;63.25;100851.50;146609;580;46023;-74
2022/05/02 03:57:46;;;;;;;;;9.00;8.00;;;;;15.62;63.93;100848.88;146617;656;46011;-73
2022/05/02 04:00:38;;;;;;;;;11.00;8.75;;;;;15.59;63.01;100857.50;146611;677;46016;-70
2022/05/02 04:03:30;;;;;;;;;11.00;8.25;;;;;15.60;62.60;100864.47;146607;600;46012;-69
2022/05/02 04:06:22;;;;;;;;;9.00;9.00;;;;;15.62;62.91;100868.03;146611;620;47013;-76
2022/05/02 04:09:15;;;;;;;;;10.00;9.00;;;;;15.67;63.55;100876.09;146616;726;46010;-73
2022/05/02 04:12:08;;;;;;;;;10.00;10.00;;;;;15.68;62.77;100877.84;146605;668;46016;-74
2022/05/02 04:15:00;;;;;;;;;7.25;7.25;;;;;15.73;63.22;100888.44;146614;699;46020;-73
2022/05/02 04:17:52;;;;;;;;;11.75;10.25;;;;;15.75;62.87;100884.16;146610;576;46014;-69
2022/05/02 04:20:45;;;;;;;;;9.25;8.25;;;;;15.81;63.40;100866.06;146614;592;47010;-70
2022/05/02 04:23:37;;;;;;;;;10.75;10.75;;;;;15.85;63.44;100858.34;146613;571;45016;-69
2022/05/02 04:26:29;;;;;;;;;7.00;7.00;;;;;15.85;63.31;100854.84;146610;580;46020;-72
2022/05/02 04:29:21;;;;;;;;;8.75;8.50;;;;;15.83;63.45;100852.22;146615;620;45035;-73
2022/05/02 04:32:14;;;;;;;;;10.50;9.50;;;;;15.84;63.56;100855.72;146611;573;46010;-73
2022/05/02 04:35:10;;;;;;;;;12.25;10.50;;;;;15.89;63.19;100857.63;146612;664;46012;-71
2022/05/02 04:38:02;;;;;;;;;14.75;11.50;;;;;15.94;63.16;100856.03;146612;601;45020;-72
2022/05/02 04:40:54;;;;;;;;;12.50;12.00;;;;;15.99;63.36;100864.03;146610;609;46012;-72
2022/05/02 04:43:51;;;;;;;;;14.00;13.50;;;;;16.03;63.56;100871.13;146609;588;46021;-73
2022/05/02 04:46:43;;;;;;;;;10.75;10.25;;;;;16.04;63.43;100869.41;146609;626;46016;-72
2022/05/02 04:49:35;;;;;;;;;11.25;11.00;;;;;16.03;62.99;100865.91;146611;610;46010;-72
2022/05/02 04:52:27;;;;;;;;;12.25;11.25;;;;;16.01;62.88;100859.75;146609;624;46016;-70
2022/05/02 04:55:20;;;;;;;;;15.00;12.25;;;;;16.05;62.34;100872.06;146611;563;46010;-72
2022/05/02 04:58:12;;;;;;;;;11.25;10.00;;;;;16.07;63.26;100874.72;146607;579;46013;-73
2022/05/02 05:01:04;;;;;;;;;9.00;9.00;;;;;16.07;63.08;100870.38;146610;667;46010;-74
2022/05/02 05:03:57;;;;;;;;;14.00;12.00;;;;;16.12;62.59;100871.41;146606;573;46016;-69
2022/05/02 05:06:49;;;;;;;;;11.25;10.00;;;;;16.17;62.92;100862.00;146612;563;47010;-70
2022/05/02 05:09:41;;;;;;;;;10.75;9.00;;;;;16.25;62.54;100856.09;146609;565;46034;-70
2022/05/02 05:13:09;;;;;;;;;13.25;12.75;;;;;16.33;62.36;100854.63;146609;564;46011;-70
2022/05/02 05:16:36;;;;;;;;;14.00;12.00;;;;;15.26;62.50;100653.47;146604;604;46016;-71
2022/05/02 05:20:06;;;;;;;;;12.25;11.75;;;;;16.38;63.84;100846.03;146608;625;46021;-70
2022/05/02 05:23:37;;;;;;;;;12.25;10.00;;;;;16.43;62.62;100846.19;146605;569;46913;-71
2022/05/02 05:27:15;;;;;;;;;10.00;9.00;;;;;15.56;62.03;100682.28;146608;604;47011;-70
2022/05/02 05:30:16;;;;;;;;;11.00;9.00;;;;;16.59;62.92;100827.44;146609;569;46016;-73
2022/05/02 05:33:37;;;;;;;;;14.25;13.25;;;;;16.70;61.86;100827.78;146610;576;46010;-74
2022/05/02 05:37:07;;;;;;;;;18.00;17.00;;;;;15.72;60.53;100634.00;146631;618;44915;-73
2022/05/02 05:40:29;;;;;;;;;16.50;15.50;;;;;15.81;60.73;100646.44;146630;585;44020;-72
2022/05/02 05:43:49;;;;;;;;;13.00;12.25;;;;;16.89;60.64;100829.19;146633;638;45019;-72
2022/05/02 05:47:00;;;;;;;;;15.50;14.50;;;;;16.94;61.75;100830.19;146637;603;44022;-79
2022/05/02 05:50:29;;;;;;;;;11.50;11.50;;;;;17.03;60.98;100835.69;146631;571;45915;-76
2022/05/02 05:53:59;;;;;;;;;22.50;20.00;;;;;15.33;60.23;100509.16;146630;653;45020;-72
2022/05/02 05:57:22;;;;;;;;;21.00;18.50;;;;;17.40;59.90;100836.63;146626;564;45018;-70
2022/05/02 06:00:18;;;;;;;;;17.00;13.75;;;;;17.55;60.81;100844.88;146630;591;45012;-70
2022/05/02 06:03:20;;;;;;;;;8.00;8.00;;;;;17.68;60.22;100845.19;146638;631;45013;-68
2022/05/02 06:06:14;;;;;;;;;12.00;11.50;;;;;17.80;60.67;100842.91;146629;635;46010;-69
2022/05/02 06:09:09;;;;;;;;;11.50;10.00;;;;;17.91;60.53;100841.44;146630;714;45016;-68
2022/05/02 06:12:03;;;;;;;;;9.50;9.50;;;;;17.97;61.11;100845.91;146635;569;45010;-69
2022/05/02 06:18:28;;;;;;;;;10.50;10.00;;;;;18.09;60.43;100840.94;146633;598;44042;-68
2022/05/02 06:21:25;;;;;;;;;8.50;8.50;;;;;18.23;60.16;100833.37;146635;577;46012;-74
2022/05/02 06:24:18;;;;;;;;;11.25;9.00;;;;;18.33;59.30;100845.84;146639;585;45010;-71
2022/05/02 06:27:11;;;;;;;;;10.75;9.75;;;;;18.39;58.45;100851.22;146638;663;45012;-71
2022/05/02 06:30:06;;;;;;;;;8.75;7.25;;;;;18.44;57.67;100854.84;146635;584;45012;-71
2022/05/02 06:33:01;;;;;;;;;7.75;7.75;;;;;18.56;57.74;100855.94;146635;593;45016;-70
2022/05/02 06:36:11;;;;;;;;;10.75;9.75;;;;;18.66;57.15;100842.12;146618;606;47010;-72
2022/05/02 06:39:23;;;;;;;;;8.00;8.00;;;;;18.72;56.07;100846.63;146607;606;46016;-74
2022/05/02 06:43:01;;;;;;;;;8.50;7.25;;;;;18.74;55.43;100845.84;146614;680;46021;-73
2022/05/02 06:46:17;;;;;;;;;7.00;6.00;;;;;18.82;56.95;100839.00;146617;616;46012;-70
2022/05/02 06:49:15;;;;;;;;;11.50;10.50;;;;;19.02;57.15;100854.25;146610;609;46010;-67
2022/05/02 06:52:13;;;;;;;;;9.25;8.25;;;;;19.21;56.05;100850.22;146612;645;45043;-68
2022/05/02 06:55:54;;;;;;;;;10.50;8.50;;;;;18.38;55.79;100659.53;146610;570;47011;-68
2022/05/02 06:59:44;;;;;;;;;9.75;8.50;;;;;18.91;55.39;100706.94;146611;632;46914;-70
2022/05/02 07:03:09;;;;;;;;;12.00;9.50;;;;;18.67;55.56;100650.44;146613;603;46010;-69
2022/05/02 07:06:39;;;;;;;;;10.50;9.00;;;;;18.58;55.06;100641.53;146610;681;46014;-67
2022/05/02 07:09:53;;;;;;;;;8.75;8.00;;;;;19.49;54.90;100828.81;146611;637;46021;-70
2022/05/02 07:13:23;;;;;;;;;9.50;8.25;;;;;17.38;55.39;100486.22;146613;658;46912;-71
2022/05/02 07:16:37;;;;;;;;;8.00;7.00;;;;;18.15;55.84;100638.13;146614;578;46020;-69
2022/05/02 07:20:06;;;;;;;;;6.00;6.00;;;;;17.97;56.00;100639.56;146613;651;46016;-68
2022/05/02 07:23:50;;;;;;;;;9.25;9.00;;;;;17.75;55.71;100622.44;146616;642;46010;-71
2022/05/02 07:26:43;;;;;;;;;7.75;7.50;;;;;17.88;54.02;100657.72;146613;712;46012;-69
2022/05/02 07:29:39;;;;;;;;;7.50;7.50;;;;;18.76;56.10;100814.38;146612;605;46010;-68
2022/05/02 07:32:33;;;;;;;;;10.25;8.50;;;;;18.74;56.43;100813.44;146612;704;46915;-68
2022/05/02 07:35:26;;;;;;;;;10.25;9.00;;;;;18.79;56.16;100802.19;146610;563;46020;-69
2022/05/02 07:38:22;;;;;;;;;8.00;8.00;;;;;18.81;56.26;100804.81;146613;618;46016;-68
2022/05/02 07:41:22;;;;;;;;;13.50;12.50;;;;;18.80;56.66;100808.31;146608;632;46020;-74
2022/05/02 07:44:16;;;;;;;;;15.75;13.00;;;;;18.81;57.00;100804.81;146612;638;45016;-75
2022/05/02 07:47:13;;;;;;;;;15.25;14.75;;;;;18.88;56.89;100802.34;146612;583;45020;-74
2022/05/02 07:50:07;;;;;;;;;17.75;15.50;;;;;18.95;56.50;100800.72;146609;604;46012;-75
2022/05/02 07:53:02;;;;;;;;;10.50;8.75;;;;;19.02;55.84;100799.09;146606;629;46010;-74
2022/05/02 07:55:54;;;;;;;;;15.00;15.00;;;;;19.09;55.82;100798.31;146611;626;45017;-74
2022/05/02 07:58:50;;;;;;;;;11.00;9.75;;;;;19.17;55.07;100795.84;146610;589;46020;-74
2022/05/02 08:01:43;;;;;;;;;11.25;10.00;;;;;19.21;54.66;100793.28;146607;577;45915;-72
2022/05/02 08:04:37;;;;;;;;;14.25;12.50;;;;;19.25;55.14;100797.75;146609;578;46020;-73
2022/05/02 08:07:57;;;;;;;;;14.00;14.00;;;;;17.90;55.98;100547.56;146607;649;46016;-74
2022/05/02 08:11:08;;;;;;;;;10.50;10.25;;;;;19.48;54.64;100802.50;146604;630;46021;-72
2022/05/02 08:14:22;;;;;;;;;11.00;10.75;;;;;19.56;55.62;100792.97;146605;668;47014;-74
2022/05/02 08:18:02;;;;;;;;;11.25;9.50;;;;;18.66;54.75;100622.44;146613;636;46011;-75
2022/05/02 08:21:30;;;;;;;;;14.00;11.00;;;;;19.64;54.40;100783.50;146607;643;46014;-75
2022/05/02 08:28:07;;;;;;;;;14.00;11.25;;;;;19.61;54.54;100783.41;146607;563;47012;-74
2022/05/02 08:31:15;;;;;;;;;11.25;10.25;;;;;19.63;53.69;100781.69;146612;704;46020;-73
2022/05/02 08:34:37;;;;;;;;;14.25;12.50;;;;;18.76;54.12;100615.63;146609;616;47014;-76
2022/05/02 08:38:07;;;;;;;;;10.25;9.25;;;;;19.76;54.27;100764.38;146615;607;46020;-73
2022/05/02 08:41:51;;;;;;;;;7.75;7.75;;;;;19.86;53.73;100774.16;146610;573;46912;-77
2022/05/02 08:45:33;;;;;;;;;11.50;10.25;;;;;19.02;53.90;100599.37;146606;594;46031;-75
2022/05/02 08:49:37;;;;;;;;;8.00;8.00;;;;;19.04;52.29;100582.75;146611;675;46024;-76
2022/05/02 08:53:03;;;;;;;;;7.50;7.50;;;;;20.04;52.71;100766.53;146618;590;45020;-74
2022/05/02 08:56:39;;;;;;;;;13.00;9.75;;;;;19.03;52.66;100582.72;146610;580;46014;-70
2022/05/02 09:00:21;;;;;;;;;9.25;8.25;;;;;19.97;51.67;100769.03;146612;696;46020;-71
2022/05/02 09:04:10;;;;;;;;;9.00;9.00;;;;;19.90;51.87;100764.56;146611;570;45913;-71
2022/05/02 09:07:40;;;;;;;;;6.50;6.50;;;;;19.83;51.24;100767.09;146614;615;46020;-71
2022/05/02 09:11:07;;;;;;;;;5.00;5.00;;;;;19.81;50.49;100771.50;146614;590;46016;-67
2022/05/02 09:14:38;;;;;;;;;9.00;7.50;;;;;19.78;51.75;100774.06;146613;563;47020;-70
2022/05/02 09:18:24;;;;;;;;;7.33;6.67;;;;;18.78;51.70;100600.75;146616;611;45913;-68
2022/05/02 09:21:50;;;;;;;;;11.75;7.25;;;;;19.75;51.39;100773.13;146609;621;47010;-68
2022/05/02 09:25:13;;;;;;;;;13.50;12.75;;;;;19.71;54.19;100771.31;146609;590;46915;-69
2022/05/02 09:28:26;;;;;;;;;8.00;7.00;;;;;18.00;54.29;100511.03;146616;603;46012;-68
2022/05/02 09:31:24;;;;;;;;;12.00;10.25;;;;;19.54;55.35;100781.56;146610;642;46012;-67
2022/05/02 09:34:31;;;;;;;;;15.50;12.75;;;;;19.48;54.38;100777.09;146608;678;45020;-69
2022/05/02 09:37:36;;;;;;;;;8.50;7.50;;;;;19.44;55.42;100774.38;146606;577;47013;-68
2022/05/02 09:40:38;;;;;;;;;9.50;9.00;;;;;19.41;55.98;100780.47;146613;595;46020;-68
2022/05/02 09:51:47;;;;;;;;;9.50;9.50;;;;;18.37;55.74;100602.66;146604;590;47014;-69
2022/05/02 09:58:37;;;;;;;;;12.75;10.75;;;;;19.27;55.39;100789.87;146611;693;46018;-69
2022/05/02 10:01:32;;;;;;;;;10.50;9.00;;;;;19.18;55.33;100793.22;146610;717;47010;-70
2022/05/02 10:05:09;;;;;;;;;10.00;9.00;;;;;18.05;55.23;100615.19;146611;650;46016;-70
2022/05/02 10:08:38;;;;;;;;;7.00;7.00;;;;;18.02;55.60;100620.37;146613;703;46020;-70
2022/05/02 10:11:50;;;;;;;;;108.75;100.50;;;;;18.95;56.09;100798.09;146611;594;46012;-70
2022/05/02 10:15:22;;;;;;;;;10.00;8.50;;;;;17.88;55.98;100618.38;146619;567;46011;-69
2022/05/02 10:18:59;;;;;;;;;7.75;7.75;;;;;17.82;55.73;100614.72;146608;579;46912;-71
2022/05/02 10:22:25;;;;;;;;;10.50;8.75;;;;;18.80;56.00;100796.06;146613;697;46028;-71
2022/05/02 10:25:48;;;;;;;;;17.75;17.00;;;;;17.64;55.83;100610.88;146607;578;46012;-70
2022/05/02 10:29:46;;;;;;;;;20.50;18.00;;;;;17.93;55.49;100661.31;146607;581;46020;-70
2022/05/02 10:33:09;;;;;;;;;6.75;6.00;;;;;17.65;55.66;100619.59;146615;569;45914;-71
2022/05/02 10:36:03;;;;;;;;;8.00;8.00;;;;;18.65;55.89;100801.84;146614;601;46020;-70
2022/05/02 10:39:03;;;;;;;;;11.25;8.50;;;;;18.66;55.41;100794.84;146605;658;46017;-73
2022/05/02 10:42:02;;;;;;;;;8.00;8.00;;;;;18.65;55.33;100793.09;146615;626;45049;-69
2022/05/02 10:45:12;;;;;;;;;10.00;8.50;;;;;18.60;55.07;100790.41;146611;622;46016;-70
2022/05/02 10:48:36;;;;;;;;;14.50;13.50;;;;;18.62;55.47;100793.03;146609;582;46020;-71
2022/05/02 10:52:05;;;;;;;;;10.75;9.50;;;;;17.60;55.34;100606.41;146611;688;45016;-74
2022/05/02 10:55:07;;;;;;;;;10.25;8.50;;;;;18.73;55.18;100790.66;146612;660;46010;-72
2022/05/02 10:58:10;;;;;;;;;8.75;8.00;;;;;18.78;54.87;100787.25;146608;571;46012;-69
2022/05/02 11:01:38;;;;;;;;;9.25;9.25;;;;;18.83;54.93;100790.84;146607;595;47010;-70
2022/05/02 11:05:07;;;;;;;;;11.50;11.50;;;;;18.91;55.16;100773.50;146611;581;46915;-72
2022/05/02 11:08:11;;;;;;;;;10.00;8.25;;;;;18.99;55.33;100776.25;146608;569;46021;-71
2022/05/02 11:11:11;;;;;;;;;16.00;14.00;;;;;19.05;54.86;100765.84;146603;569;46025;-73
2022/05/02 11:14:55;;;;;;;;;13.00;12.50;;;;;18.06;54.32;100586.34;146603;643;46021;-70
2022/05/02 11:22:14;;;;;;;;;10.25;7.00;;;;;19.27;54.53;100774.09;146612;569;46021;-73
2022/05/02 11:25:27;;;;;;;;;10.75;9.00;;;;;19.33;54.27;100769.81;146606;580;46014;-69
2022/05/02 11:28:48;;;;;;;;;10.50;9.75;;;;;19.43;54.44;100769.97;146614;567;46010;-69
2022/05/02 11:31:49;;;;;;;;;10.25;9.50;;;;;19.54;53.96;100773.66;146600;729;47912;-71
2022/05/02 11:35:24;;;;;;;;;10.00;7.75;;;;;19.62;54.70;100770.31;146612;660;46020;-68
2022/05/02 11:38:56;;;;;;;;;10.00;10.00;;;;;19.65;53.54;100766.84;146613;682;46016;-70
2022/05/02 11:41:51;;;;;;;;;9.25;8.00;;;;;19.60;54.36;100771.12;146614;573;46020;-72
2022/05/02 11:45:13;;;;;;;;;10.00;9.00;;;;;18.44;54.11;100586.13;146609;603;46017;-70
2022/05/02 11:48:46;;;;;;;;;7.75;6.75;;;;;19.29;54.85;100768.03;146620;604;46010;-69
2022/05/02 11:51:58;;;;;;;;;8.75;8.25;;;;;19.12;55.08;100764.22;146613;659;46016;-69
2022/05/02 11:54:56;;;;;;;;;7.00;6.00;;;;;19.01;55.22;100768.41;146614;670;46020;-68
2022/05/02 11:57:58;;;;;;;;;10.00;7.75;;;;;18.88;56.03;100768.19;146610;645;46017;-68
2022/05/02 12:00:56;;;;;;;;;6.75;6.75;;;;;18.77;57.10;100769.72;146613;612;46021;-68
2022/05/02 12:04:08;;;;;;;;;9.50;8.75;;;;;18.65;57.27;100777.34;146613;580;46016;-69
2022/05/02 12:07:16;;;;;;;;;8.25;7.25;;;;;18.56;57.84;100770.16;146617;662;46010;-68
2022/05/02 12:10:14;;;;;;;;;7.75;7.75;;;;;18.53;58.35;100769.22;146613;568;46915;-68
2022/05/02 12:13:10;;;;;;;;;7.25;7.25;;;;;18.50;58.12;100766.53;146616;622;46011;-69
2022/05/02 12:16:06;;;;;;;;;9.00;7.75;;;;;18.47;58.44;100767.34;146613;623;46014;-68
2022/05/02 12:19:03;;;;;;;;;7.00;6.00;;;;;17.53;58.04;100600.13;146616;644;46010;-69
2022/05/02 12:21:56;;;;;;;;;6.00;5.25;;;;;18.49;58.39;100762.16;146611;627;46024;-69
2022/05/02 12:24:50;;;;;;;;;7.00;6.50;;;;;18.48;58.66;100760.38;146615;692;47010;-68
2022/05/02 12:27:42;;;;;;;;;5.00;3.50;;;;;18.46;59.09;100761.22;146609;585;46017;-68
2022/05/02 12:30:39;;;;;;;;;8.00;5.50;;;;;18.44;58.72;100757.72;146612;597;46020;-69
2022/05/02 12:33:31;;;;;;;;;6.75;5.75;;;;;18.42;58.12;100751.53;146611;628;47012;-69
2022/05/02 12:36:24;;;;;;;;;8.00;6.00;;;;;18.41;58.45;100744.50;146614;581;46021;-70
2022/05/02 12:39:35;;;;;;;;;12.25;7.00;;;;;18.42;58.22;100750.66;146612;613;46014;-69
2022/05/02 12:42:31;;;;;;;;;6.00;4.00;;;;;18.37;59.51;100747.91;146618;642;46010;-70
2022/05/02 12:45:27;;;;;;;;;10.00;9.00;;;;;18.38;58.64;100740.91;146611;571;46014;-68
2022/05/02 12:48:33;;;;;;;;;5.00;5.00;;;;;18.33;58.73;100739.97;146615;613;46010;-70
2022/05/02 12:51:28;;;;;;;;;6.25;6.25;;;;;18.32;58.85;100741.72;146614;695;46031;-70
2022/05/02 12:54:20;;;;;;;;;8.00;7.00;;;;;18.31;57.78;100739.03;146615;593;46020;-69
2022/05/02 13:01:05;;;;;;;;;7.00;7.00;;;;;18.25;58.58;100729.28;146614;661;46020;-69
2022/05/02 13:04:36;;;;;;;;;6.00;6.00;;;;;17.15;57.90;100540.78;146613;600;46012;-68
2022/05/02 13:07:31;;;;;;;;;6.50;5.75;;;;;18.24;58.29;100725.78;146611;641;46023;-68
2022/05/02 13:10:32;;;;;;;;;6.25;5.50;;;;;18.25;58.30;100729.28;146613;695;46012;-68
2022/05/02 13:13:25;;;;;;;;;4.75;4.00;;;;;18.23;58.18;100720.53;146613;625;46021;-69
2022/05/02 13:16:31;;;;;;;;;4.00;4.00;;;;;18.18;59.00;100723.03;146613;582;46916;-68
2022/05/02 13:19:39;;;;;;;;;7.00;6.00;;;;;18.14;58.12;100710.72;146616;607;46013;-68
2022/05/02 13:22:31;;;;;;;;;5.25;4.25;;;;;18.11;59.15;100712.41;146615;578;46012;-68
2022/05/02 13:25:23;;;;;;;;;6.00;5.00;;;;;18.05;58.63;100714.91;146619;569;46010;-68
2022/05/02 13:28:27;;;;;;;;;7.25;5.00;;;;;18.00;58.40;100707.78;146607;665;47917;-66
2022/05/02 13:31:49;;;;;;;;;6.75;6.75;;;;;16.89;57.88;100512.31;146616;566;46030;-69
2022/05/02 13:35:09;;;;;;;;;5.25;3.00;;;;;17.93;58.63;100697.16;146616;641;46014;-68
2022/05/02 13:38:18;;;;;;;;;7.00;6.25;;;;;17.88;58.95;100694.47;146613;572;47010;-68
2022/05/02 13:41:48;;;;;;;;;7.00;6.00;;;;;17.83;58.95;100688.22;146612;575;46917;-69
2022/05/02 13:45:43;;;;;;;;;5.75;4.25;;;;;16.77;59.27;100499.81;146614;632;46020;-68
2022/05/02 13:49:03;;;;;;;;;6.50;5.00;;;;;17.82;59.01;100677.66;146611;610;47917;-69
2022/05/02 13:52:46;;;;;;;;;5.25;4.00;;;;;17.83;58.82;100680.34;146614;643;47010;-67
2022/05/02 13:55:58;;;;;;;;;5.75;5.50;;;;;17.82;59.28;100677.66;146610;672;47012;-68
2022/05/02 13:59:16;;;;;;;;;5.75;5.00;;;;;17.81;60.53;100679.41;146617;685;46010;-68
2022/05/02 14:02:56;;;;;;;;;8.00;5.00;;;;;17.75;61.10;100676.63;146614;577;47014;-67
2022/05/02 14:06:13;;;;;;;;;4.75;4.75;;;;;17.69;62.63;100666.88;146616;564;46010;-68
2022/05/02 14:09:07;;;;;;;;;7.75;6.50;;;;;17.67;62.23;100662.50;146613;570;46016;-67
2022/05/02 14:11:59;;;;;;;;;10.00;7.50;;;;;17.65;61.88;100659.81;146613;579;46011;-68
2022/05/02 14:15:15;;;;;;;;;7.00;6.25;;;;;17.59;60.72;100651.81;146611;572;46016;-69
2022/05/02 14:18:17;;;;;;;;;5.25;5.00;;;;;17.60;60.96;100655.31;146612;668;46020;-70
2022/05/02 14:21:10;;;;;;;;;10.00;9.00;;;;;17.58;62.09;100652.69;146613;602;46917;-69
2022/05/02 14:24:03;;;;;;;;;5.25;5.25;;;;;17.60;62.42;100656.22;146608;638;46020;-68
2022/05/02 14:27:08;;;;;;;;;8.00;6.25;;;;;17.60;61.82;100645.75;146611;743;48042;-68
2022/05/02 14:30:26;;;;;;;;;6.50;6.00;;;;;16.63;60.36;100473.31;146612;570;47010;-67
2022/05/02 14:33:45;;;;;;;;;6.25;6.25;;;;;17.65;61.60;100654.56;146614;708;46012;-69
2022/05/02 14:36:40;;;;;;;;;9.00;9.00;;;;;17.66;62.57;100661.63;146638;681;45010;-68
2022/05/02 14:39:42;;;;;;;;;5.50;5.50;;;;;17.63;60.64;100656.31;146636;576;45012;-69